Flight Track Log - Related Links

Times and Time Zones

All times are in EDT time to prevent confusion due to time zone crossing. See the SKW5457 flight status page for this flight to view local times or setup timezone preferences in your user account.

Time Position Orientation Groundspeed Altitude Reporting Facility
EDT Latitude Longitude Course Direction KTS MPH feet Rate Location/Type
Tue 06:47:32 PM 49.8662 -97.1771 324° Northwest  Level FlightAware Approximate
Tue 06:47:47 PM 49.9167 -97.2333 126° Southeast 150 173 2,000  Level Winnipeg Center
Tue 06:52:47 PM 49.8167 -97.0167 162° South 370 426 16,100 2,633 Climbing Winnipeg Center
Tue 06:53:47 PM 49.7167 -96.9667 164° South 380 437 17,800 1,800 Climbing Winnipeg Center
Tue 06:54:47 PM 49.6000 -96.9167 152° Southeast 400 460 19,700 1,900 Climbing Winnipeg Center
Tue 06:55:47 PM 49.5000 -96.8333 151° Southeast 420 483 21,600 1,750 Climbing Winnipeg Center
Tue 06:56:47 PM 49.3833 -96.7333 147° Southeast 430 495 23,200 1,600 Climbing Winnipeg Center
Tue 06:57:47 PM 49.2833 -96.6333 139° Southeast 440 506 24,800 1,500 Climbing Winnipeg Center
Tue 06:58:47 PM 49.1833 -96.5000 159° South 450 518 26,200 1,350 Climbing Winnipeg Center
Tue 06:59:47 PM 49.0667 -96.4333 144° Southeast 460 529 27,500 1,154 Climbing Winnipeg Center
Tue 07:00:31 PM 49.0114 -96.3714 148° Southeast 465 535 28,200 1,038 Climbing Minneapolis Center
Tue 07:01:31 PM 48.8994 -96.2639 149° Southeast 465 535 29,300 900 Climbing Minneapolis Center
Tue 07:02:31 PM 48.7853 -96.1600 148° Southeast 471 542 30,000 350 Climbing Minneapolis Center
Tue 07:03:31 PM 48.6631 -96.0436 149° Southeast 493 567 30,000  Level Minneapolis Center
Tue 07:04:31 PM 48.5406 -95.9308 149° Southeast 507 583 30,000 550 Level Minneapolis Center
Tue 07:05:31 PM 48.4181 -95.8217 148° Southeast 512 589 31,100 1,000 Climbing Minneapolis Center
Tue 07:06:31 PM 48.2994 -95.7100 149° Southeast 512 589 32,000 950 Climbing Minneapolis Center
Tue 07:07:31 PM 48.1847 -95.6086 149° Southeast 507 583 33,000 500 Climbing Minneapolis Center
Tue 07:08:31 PM 48.0456 -95.4847 149° Southeast 512 589 33,000  Level Minneapolis Center
Tue 07:09:31 PM 47.9244 -95.3778 149° Southeast 512 589 33,000  Level Minneapolis Center
Tue 07:10:31 PM 47.8075 -95.2747 149° Southeast 505 581 33,000  Level Minneapolis Center
Tue 07:11:30 PM 47.6925 -95.1719 150° Southeast 494 568 33,000  Level Minneapolis Center
Tue 07:12:31 PM 47.5753 -95.0728 148° Southeast 488 562 33,000  Level Minneapolis Center
Tue 07:13:31 PM 47.4642 -94.9711 151° Southeast 478 550 33,000  Level Minneapolis Center
Tue 07:14:31 PM 47.3486 -94.8758 150° Southeast 478 550 33,000  Level Minneapolis Center
Tue 07:15:31 PM 47.2333 -94.7781 148° Southeast 478 550 33,000  Level Minneapolis Center
Tue 07:16:31 PM 47.1219 -94.6775 150° Southeast 478 550 33,000  Level Minneapolis Center
Tue 07:17:31 PM 47.0125 -94.5836 150° Southeast 478 550 33,000  Level Minneapolis Center
Tue 07:18:31 PM 46.9008 -94.4903 150° Southeast 478 550 33,000  Level Minneapolis Center
Tue 07:19:31 PM 46.7872 -94.3939 150° Southeast 473 544 33,000  Level Minneapolis Center
Tue 07:20:31 PM 46.6775 -94.3014 150° Southeast 473 544 33,000  Level Minneapolis Center
Tue 07:21:31 PM 46.5658 -94.2058 151° Southeast 467 537 33,000  Level Minneapolis Center
Tue 07:22:30 PM 46.4539 -94.1169 151° Southeast 467 537 33,000  Level Minneapolis Center
Tue 07:23:31 PM 46.3397 -94.0253 159° South 467 537 33,000  Level Minneapolis Center
Tue 07:24:31 PM 46.2214 -93.9581 160° South 461 531 33,000  Level Minneapolis Center
Tue 07:25:31 PM 46.1031 -93.8969 159° South 451 519 33,000  Level Minneapolis Center
Tue 07:26:31 PM 45.9844 -93.8303 160° South 456 525 33,000  Level Minneapolis Center
Tue 07:27:31 PM 45.8658 -93.7669 159° South 456 525 33,000  Level Minneapolis Center
Tue 07:28:30 PM 45.7475 -93.7008 160° South 456 525 33,000  Level Minneapolis Center
Tue 07:29:31 PM 45.6289 -93.6378 159° South 462 532 33,000  Level Minneapolis Center
Tue 07:30:30 PM 45.5183 -93.5783 159° South 462 532 33,000  Level Minneapolis Center
Tue 07:31:31 PM 45.3997 -93.5128 160° South 462 532 33,000  Level Minneapolis Center
Tue 07:32:31 PM 45.2831 -93.4508 154° Southeast 462 532 33,000  Level Minneapolis Center
Tue 07:33:31 PM 45.1664 -93.3714 132° Southeast 462 532 33,000  Level Minneapolis Center
Tue 07:34:30 PM 45.0808 -93.2392 119° Southeast 451 519 33,000  Level Minneapolis Center
Tue 07:35:30 PM 45.0117 -93.0661 119° Southeast 451 519 33,000  Level Minneapolis Center
Tue 07:36:31 PM 44.9486 -92.9053 121° Southeast 462 532 33,000  Level Minneapolis Center
Tue 07:37:31 PM 44.8833 -92.7506 121° Southeast 462 532 33,000  Level Minneapolis Center
Tue 07:38:30 PM 44.8175 -92.5964 120° Southeast 462 532 33,000  Level Minneapolis Center
Tue 07:39:31 PM 44.7539 -92.4394 122° Southeast 462 532 33,000  Level Minneapolis Center
Tue 07:40:30 PM 44.6878 -92.2886 122° Southeast 461 531 33,000  Level Minneapolis Center
Tue 07:41:30 PM 44.6281 -92.1528 121° Southeast 461 531 33,000  Level Minneapolis Center
Tue 07:42:31 PM 44.5617 -91.9969 123° Southeast 456 525 33,000 -50 Level Minneapolis Center
Tue 07:43:31 PM 44.4928 -91.8503 126° Southeast 451 519 32,900 -353 Descending Minneapolis Center
Tue 07:44:30 PM 44.4158 -91.7014 126° Southeast 469 540 32,300 -600 Descending Minneapolis Center
Tue 07:45:31 PM 44.3361 -91.5500 127° Southeast 484 557 31,700 -595 Descending Minneapolis Center
Tue 07:46:31 PM 44.2478 -91.3847 126° Southeast 484 557 31,100 -350 Descending Minneapolis Center
Tue 07:47:31 PM 44.1700 -91.2369 126° Southeast 484 557 31,000 -56 Descending Minneapolis Center
Tue 07:48:18 PM 44.1083 -91.1186 126° Southeast 483 556 31,000  Level Chicago Center
Tue 07:49:18 PM 44.0311 -90.9692 127° Southeast 483 556 31,000  Level Chicago Center
Tue 07:50:18 PM 43.9539 -90.8258 127° Southeast 478 550 31,000  Level Chicago Center
Tue 07:51:18 PM 43.8786 -90.6858 126° Southeast 478 550 31,000  Level Chicago Center
Tue 07:52:18 PM 43.8050 -90.5433 127° Southeast 467 537 31,000  Level Chicago Center
Tue 07:53:18 PM 43.7272 -90.4011 127° Southeast 467 537 31,000  Level Chicago Center
Tue 07:54:18 PM 43.6494 -90.2592 127° Southeast 467 537 31,000 -300 Level Chicago Center
Tue 07:55:18 PM 43.5733 -90.1206 127° Southeast 462 532 30,400 -1,850 Descending Chicago Center
Tue 07:56:18 PM 43.4950 -89.9764 128° Southeast 462 532 27,300 -3,050 Descending Chicago Center
Tue 07:57:18 PM 43.4164 -89.8356 126° Southeast 467 537 24,300 -2,150 Descending Chicago Center
Tue 07:58:18 PM 43.3439 -89.7008 128° Southeast 455 524 23,000 -650 Descending Chicago Center
Tue 07:59:18 PM 43.2714 -89.5722 127° Southeast 429 494 23,000 -200 Level Chicago Center
Tue 08:00:18 PM 43.2050 -89.4525 129° Southeast 405 466 22,600 -650 Descending Chicago Center
Tue 08:01:18 PM 43.1425 -89.3469 161° South 381 438 21,700 -900 Descending Chicago Center
Tue 08:02:18 PM 43.0592 -89.3072 164° South 317 365 20,800 -900 Descending Chicago Center
Tue 08:03:18 PM 42.9819 -89.2761 148° Southeast 304 350 19,900 -900 Descending Chicago Center
Tue 08:04:18 PM 42.9153 -89.2194 106° East 279 321 19,000 -450 Descending Chicago Center
Tue 08:05:18 PM 42.8878 -89.0919 107° East 356 410 19,000 -750 Level Chicago Center
Tue 08:06:18 PM 42.8625 -88.9789 107° East 373 429 17,500 -2,200 Descending Chicago Center
Tue 08:07:18 PM 42.8244 -88.8119 107° East 384 442 14,600 -2,100 Descending Chicago Center
Tue 08:08:18 PM 42.7944 -88.6822 108° East 375 432 13,300 -800 Descending Chicago Center
Tue 08:09:18 PM 42.7644 -88.5581 101° East 359 413 13,000 -136 Descending Chicago Center
Tue 08:10:30 PM 42.7425 -88.4056 88° East 343 395 13,000 -318 Level Chicago Center
Tue 08:11:30 PM 42.7456 -88.2783 88° East 338 389 12,300 -1,200 Descending Chicago Center
Tue 08:12:30 PM 42.7486 -88.1539 88° East 326 375 10,600 -1,700 Descending Chicago Center
Tue 08:13:30 PM 42.7514 -88.0381 86° East 315 362 8,900 -1,700 Descending Chicago Center
Tue 08:14:30 PM 42.7564 -87.9275 87° East 302 348 7,200 -950 Descending Chicago Center
Tue 08:15:30 PM 42.7611 -87.8114 122° Southeast 297 342 7,000 -100 Descending Chicago Center
Tue 08:16:30 PM 42.7203 -87.7219 148° Southeast 291 335 7,000  Level Chicago Center
Tue 08:18:03 PM 42.6167 -87.6333 164° South 299 344 7,000  Level Chicago TRACON
Tue 08:19:04 PM 42.5333 -87.6000 164° South 283 326 7,000  Level Chicago TRACON
Tue 08:20:04 PM 42.4500 -87.5667 190° South 278 320 7,000  Level Chicago TRACON
Tue 08:21:04 PM 42.3833 -87.5833 170° South 256 295 7,000 -421 Level Chicago TRACON
Tue 08:21:58 PM 42.3167 -87.5667 164° South 276 318 6,200 -600 Descending Chicago TRACON
Tue 08:23:04 PM 42.2333 -87.5333 151° Southeast 295 339 5,800 -545 Descending Chicago TRACON
Tue 08:24:10 PM 42.1667 -87.4833 197° South 268 308 5,000 -524 Descending Chicago TRACON
Tue 08:25:10 PM 42.0833 -87.5167 228° Southwest 261 300 4,700 -526 Descending Chicago TRACON
Tue 08:26:04 PM 42.0500 -87.5667 255° West 222 255 4,000 -350 Descending Chicago TRACON
Tue 08:27:10 PM 42.0333 -87.6500 246° West 199 229 4,000 -150 Level Chicago TRACON
Tue 08:28:04 PM 42.0167 -87.7000 270° West 164 189 3,700 -579 Descending Chicago TRACON
Tue 08:29:04 PM 42.0167 -87.7667 270° West 166 191 2,900 -800 Descending Chicago TRACON

Login

Don't have an account? Register now (free) for customized features, flight alerts, and more!